This is the latest recevied weather packets stored in our database for station/object XE3JAR. If no packets are shown the sender has not sent any weather packets the latest 10 day(s).
| Time | Temp. | Humidity | Pressure | Rain* | Wind** | Luminosity | Snow |
|---|---|---|---|---|---|---|---|
| 1777516555 | 28.89° C | 79% | 1013.6 hPa | - | - | - | - |
| 1777515332 | 30° C | 78% | 1013.9 hPa | - | - | - | - |
| 1777510993 | 31.11° C | 74% | 1013.2 hPa | - | - | - | - |
| 1777507040 | 33.89° C | 68% | 1012.2 hPa | - | - | - | - |
| 1777505224 | 36.11° C | 60% | 1012.2 hPa | - | - | - | - |
| 1777503401 | 37.78° C | 51% | 1011.8 hPa | - | - | - | - |
| 1777496559 | 41.11° C | 44% | 1012.2 hPa | - | - | - | - |
| 1777493829 | 42.22° C | 45% | 1013.2 hPa | - | - | - | - |
| 1777490961 | 41.11° C | 49% | 1013.9 hPa | - | - | - | - |
| 1777490658 | 41.11° C | 51% | 1013.9 hPa | - | - | - | - |
| 1777488217 | 42.78° C | 49% | 1014.6 hPa | - | - | - | - |
| 1777487915 | 42.22° C | 50% | 1014.6 hPa | - | - | - | - |
| 1777484895 | 41.11° C | 54% | 1015.6 hPa | - | - | - | - |
| 1777484579 | 42.22° C | 52% | 1015.6 hPa | - | - | - | - |
| 1777484263 | 41.11° C | 55% | 1015.6 hPa | - | - | - | - |
| 1777483243 | 42.22° C | 55% | 1015.9 hPa | - | - | - | - |
| 1777482942 | 40° C | 56% | 1015.9 hPa | - | - | - | - |
| 1777481750 | 42.22° C | 56% | 1015.9 hPa | - | - | - | - |
| 1777480835 | 41.11° C | 58% | 1016.3 hPa | - | - | - | - |
| 1777480212 | 40° C | 59% | 1016.3 hPa | - | - | - | - |
| 1777476249 | 33.89° C | 71% | 1016.9 hPa | - | - | - | - |
| 1777474123 | 32.78° C | 76% | 1016.9 hPa | - | - | - | - |
| 1777473511 | 32.78° C | 74% | 1016.9 hPa | - | - | - | - |
| 1777471920 | 32.78° C | 76% | 1016.9 hPa | - | - | - | - |
| 1777466060 | 25° C | 99% | 1015.9 hPa | - | - | - | - |
* Rain since midnight (hover to see other rain measurements)
** Current wind speed in m/s (hover to see current wind gust speed)